Ana Sayfa
METAR-TAF:

METAR-TAF

Havaalanları :

Toliara, Madagaskar

Enlem: 23-23S, Boylam: 043-44E, yükseklik: 8 m

METAR: eksik

Saat: 08:43 (05:43 UTC)

Tahmin

Rapor saat 05:00 UTC de 43 dakika önce yapıldı.
Ayın 23'si saat 06 UTC'den ayın 24'si saat 06 UTC'ye kadar geçerli Tahmin
Rüzgar güney/güneydoğudan 10 kt
Görüş mesafesi 10 km veya daha fazla
2000 ft yükseklikte az bulutlu
Dönüşüyor
ayın 23'si saat 08 UTC'den ayın 23'si saat 11 UTC'ye kadar
Rüzgar güneybatıdan 12 kt
Dönüşüyor
ayın 23'si saat 18 UTC'den ayın 23'si saat 21 UTC'ye kadar
Rüzgar güney/güneydoğudan 10 kt

TAF: FMST 230500Z 2306/2406 16010KT 9999 FEW020 BECMG 2308/2311 22012KT BECMG 2318/2321 16010KT

4.000'den fazla havaalanı için hava durumu gözlemleri ve tahminleri (METAR ve TAF raporları).

Kullanılabilir istasyonlar harita üzerinde sarı ve kırmızı noktalarla gösterilir.

İstasyonun adını görmek için fareyi noktanın üzerinde gezdirin.

Sonrasında hava gözlem ve tahminlerini görmek için tıklayın.

Haritayı değiştirmek için: yaklaştırmak için siyah artı işaretli yeşil düğmeye ve uzaklaştırmak için de eksi işaretli düğmeye hızla tıklayın; bitişik haritalar için yeşil okları kullanın.


METAR-TAF: